17:19
Airports
History
Links
Donate
Help keep this website running!
PayPal
Bitcoin
This page is community maintained. The information is intended for PC simulator navigation or reference.
Always use approved charts for navigation.
NTTR
Raiatea
Raiatea (NTTR)
Uturoa, Leeward Islands, French Polynesia
(C)
Lat/Lng:16° 43' 22.31" S / 151° 27' 57.08" W
-16.722863 / -151.465856
Elevation:3'ft / 1mMSL
ID / ICAO:NTTR
Runways:1
Longest:07-25
Asphalt 1,400m / 4,594ft
Controlled:Yes
Nearby Weather19:00 GMT 2017-01-12
Nearby weather at NTTB, Bora Bora located 27.1 nautical miles from NTTR
Altimeter: 29.80
Visibility: 6.2 statute miles
Wind: 5 knots (from 040°)
Temp: 30°c / 86°f
Humidity: 66.2%

METAR: NTTB 121900Z AUTO 04005KT 9999 NCD 30/23 Q1009

(Powered by phpweather)
Airport Radio Frequencies
Tower: 118.5
Approach: 134.7
Runway 07 / 25
Dimensions:1400.1 x 29.9m 4594' x 98'ft
Surface:Asphalt
Edge Lights:Medium intensity
Runway 07 [A]Runway 25 [B]
Heading:083°TH 263°TH
Lat:
Lng:
16° 43' 24.74"S
151° 28' 20.62"W
16° 43' 19.87"S
151° 27' 33.54"W
TDZ:Yes, lighted
User Notes and Comments
16° 43' 22.31" S / 151° 27' 57.08" W
Distance To
Airport ID:
Nearby Airports
(C) Bora Bora 27.1 NM
NTTB ( WX ) NW 315°
(C) Huahine 29.5 NM
NTTH E 85°
(C) Maupiti 55.4 NM
NTTP WNW 291°
(U) Tetiaroa 124.3 NM
NTTE E 99°
(C) Moorea 124.4 NM
NTTM ESE 115°
(C) Faaa 135.5 NM
NTAA ( WX ) ESE 115°
(U) MATAIVA 223.2 NM
NTGV NE 54°
VFR Chart
Flight Planning at SkyVector.com